Time;durP1;ratioP1;P1;durP2;ratioP2;P2;SDS_P1;SDS_P2;PMS_P1;PMS_P2;Temp;Humidity;BMP_temperature;BMP_pressure;BME280_temperature;BME280_humidity;BME280_pressure;Samples;Min_cycle;Max_cycle;Signal;HPM_P1;HPM_P2
2021/08/25 00:02:18;;;;;;;0.20;0.20;;;;;;;12.43;77.35;99973.34;4932011;29;20096;-79
2021/08/25 00:04:43;;;;;;;0.20;0.20;;;;;;;12.51;77.47;99986.97;4911207;29;20077;-80
2021/08/25 00:07:09;;;;;;;0.20;0.20;;;;;;;12.50;77.71;99984.41;4905736;29;20048;-80
2021/08/25 00:09:36;;;;;;;0.20;0.20;;;;;;;12.51;77.88;99978.84;4923557;29;20036;-80
2021/08/25 00:12:02;;;;;;;0.20;0.20;;;;;;;12.44;78.14;99960.63;4916878;29;20036;-80
2021/08/25 00:14:29;;;;;;;0.20;0.20;;;;;;;12.50;78.39;99971.69;4913050;29;20048;-80
2021/08/25 00:16:55;;;;;;;0.20;0.20;;;;;;;12.50;78.45;99970.84;4931985;29;20066;-80
2021/08/25 00:19:21;;;;;;;0.57;0.20;;;;;;;12.48;78.65;99970.16;4925180;29;20495;-81
2021/08/25 00:21:46;;;;;;;0.20;0.20;;;;;;;12.44;78.98;99977.75;4921343;29;20143;-79
2021/08/25 00:24:12;;;;;;;0.20;0.20;;;;;;;12.39;79.68;99973.78;4919000;29;20450;-80
2021/08/25 00:26:38;;;;;;;0.20;0.20;;;;;;;12.38;79.69;99966.69;4912425;29;20062;-82
2021/08/25 00:29:04;;;;;;;0.20;0.20;;;;;;;12.36;79.95;99964.13;4915574;29;20447;-80
2021/08/25 00:31:30;;;;;;;0.20;0.20;;;;;;;12.42;80.01;99973.50;4920385;29;20509;-80
2021/08/25 00:33:57;;;;;;;0.20;0.20;;;;;;;12.43;79.63;99975.19;4917693;29;20055;-81
2021/08/25 00:36:24;;;;;;;0.20;0.20;;;;;;;12.46;78.60;99969.44;4925579;29;20122;-82
2021/08/25 00:38:49;;;;;;;0.20;0.20;;;;;;;12.46;77.48;99974.88;4921845;29;20104;-81
2021/08/25 00:41:15;;;;;;;0.20;0.20;;;;;;;12.41;77.27;99969.09;4916245;29;20049;-82
2021/08/25 00:43:41;;;;;;;0.20;0.20;;;;;;;12.39;76.89;99971.09;4912307;29;20040;-80
2021/08/25 00:46:07;;;;;;;0.22;0.22;;;;;;;12.35;76.99;99964.28;4917032;29;20036;-80
2021/08/25 00:48:33;;;;;;;0.20;0.20;;;;;;;12.31;76.94;99975.41;4911713;29;20066;-82
2021/08/25 00:50:59;;;;;;;0.20;0.20;;;;;;;12.33;77.02;99971.72;4911075;29;20127;-80
2021/08/25 00:53:25;;;;;;;0.30;0.30;;;;;;;12.27;76.99;99974.03;4918032;29;20242;-82
2021/08/25 00:55:58;;;;;;;0.20;0.20;;;;;;;12.23;77.64;99972.63;4894210;29;20044;-80
2021/08/25 00:58:25;;;;;;;0.20;0.20;;;;;;;12.20;77.91;99975.66;4921768;29;20036;-81
2021/08/25 01:00:56;;;;;;;0.20;0.20;;;;;;;12.15;77.20;99967.13;4914107;29;20036;-79
2021/08/25 01:04:03;;;;;;;0.20;0.20;;;;;;;12.10;77.46;99971.28;4897699;29;20136;-81
2021/08/25 01:06:29;;;;;;;0.20;0.20;;;;;;;12.08;77.75;99971.47;4927723;29;20510;-79
2021/08/25 01:08:57;;;;;;;0.20;0.20;;;;;;;12.07;77.79;99976.03;4923903;29;20056;-78
2021/08/25 01:11:23;;;;;;;0.20;0.20;;;;;;;12.10;78.05;99968.59;4869131;29;20039;-80
2021/08/25 01:13:49;;;;;;;0.20;0.20;;;;;;;12.08;78.11;99976.88;4913489;29;20048;-79
2021/08/25 01:16:15;;;;;;;0.22;0.22;;;;;;;12.06;78.37;99968.03;4882849;29;20043;-82
2021/08/25 01:18:41;;;;;;;0.20;0.20;;;;;;;12.09;77.97;99967.75;4925927;29;20476;-80
2021/08/25 01:21:07;;;;;;;0.20;0.20;;;;;;;12.09;77.96;99967.75;4916722;29;20139;-80
2021/08/25 01:23:44;;;;;;;0.20;0.20;;;;;;;12.13;77.80;99974.56;4900700;29;20056;-81
2021/08/25 01:26:10;;;;;;;0.20;0.20;;;;;;;12.18;77.78;99966.84;4928012;29;20058;-80
2021/08/25 01:28:44;;;;;;;0.20;0.20;;;;;;;12.14;77.94;99968.16;4918176;29;20044;-79
2021/08/25 01:31:11;;;;;;;0.20;0.20;;;;;;;12.12;77.53;99972.84;4915779;29;20175;-79
2021/08/25 01:33:37;;;;;;;0.20;0.20;;;;;;;12.09;77.20;99965.03;4925771;29;20040;-80
2021/08/25 01:36:03;;;;;;;0.20;0.20;;;;;;;12.09;77.69;99962.31;4914639;29;20052;-80
2021/08/25 01:38:43;;;;;;;0.20;0.20;;;;;;;12.05;77.53;99967.19;4918861;29;20064;-80
2021/08/25 01:41:10;;;;;;;0.28;0.28;;;;;;;11.99;76.38;99961.53;4914946;29;20046;-80
2021/08/25 01:43:36;;;;;;;0.20;0.20;;;;;;;11.96;75.89;99961.84;4922865;29;20047;-79
2021/08/25 01:46:02;;;;;;;0.20;0.20;;;;;;;11.96;75.46;99962.69;4906823;29;20063;-79
2021/08/25 01:48:29;;;;;;;0.20;0.20;;;;;;;11.96;76.04;99956.44;4904305;29;20047;-79
2021/08/25 01:50:55;;;;;;;0.20;0.20;;;;;;;11.95;76.24;99960.13;4923310;29;20040;-79
2021/08/25 01:53:21;;;;;;;0.25;0.25;;;;;;;11.90;76.82;99957.03;4918108;29;20056;-79
2021/08/25 01:55:47;;;;;;;0.20;0.20;;;;;;;11.86;76.61;99967.31;4917906;29;20043;-80
2021/08/25 01:58:12;;;;;;;0.20;0.20;;;;;;;11.87;76.92;99965.47;4923262;29;20047;-79
2021/08/25 02:00:38;;;;;;;0.20;0.20;;;;;;;11.86;77.10;99971.91;4923167;29;20036;-79
2021/08/25 02:03:04;;;;;;;0.20;0.20;;;;;;;11.88;76.93;99969.88;4921758;29;20074;-80
2021/08/25 02:05:29;;;;;;;0.20;0.20;;;;;;;11.89;76.90;99968.88;4920058;29;20049;-79
2021/08/25 02:07:55;;;;;;;0.20;0.20;;;;;;;11.87;76.66;99962.75;4917773;29;20052;-79
2021/08/25 02:10:22;;;;;;;0.20;0.20;;;;;;;11.90;76.72;99965.16;4912110;29;20048;-80
2021/08/25 02:12:47;;;;;;;0.20;0.20;;;;;;;11.92;77.13;99965.84;4917383;29;20052;-80
2021/08/25 02:15:13;;;;;;;0.20;0.20;;;;;;;11.94;77.10;99963.84;4923495;29;20043;-80
2021/08/25 02:17:40;;;;;;;0.20;0.20;;;;;;;11.97;76.17;99966.25;4924503;29;20055;-81
2021/08/25 02:20:07;;;;;;;0.20;0.20;;;;;;;11.96;76.06;99964.56;4914237;29;20522;-80
2021/08/25 02:22:33;;;;;;;0.20;0.20;;;;;;;11.95;75.32;99960.13;4914378;29;20123;-79
2021/08/25 02:24:59;;;;;;;0.20;0.20;;;;;;;11.96;75.83;99961.84;4924666;29;20134;-80
2021/08/25 02:27:25;;;;;;;0.20;0.20;;;;;;;11.97;75.51;99966.25;4917827;29;20055;-79
2021/08/25 02:29:55;;;;;;;0.20;0.20;;;;;;;11.97;75.08;99968.97;4912317;29;20082;-78
2021/08/25 02:32:25;;;;;;;0.20;0.20;;;;;;;11.97;75.52;99968.97;4921208;29;20506;-78
2021/08/25 02:34:51;;;;;;;0.20;0.20;;;;;;;11.98;74.84;99970.66;4942248;29;20036;-78
2021/08/25 02:37:18;;;;;;;0.20;0.20;;;;;;;11.97;75.36;99963.56;4932350;29;20044;-77
2021/08/25 02:39:44;;;;;;;0.28;0.28;;;;;;;11.96;75.35;99962.69;4939056;29;20040;-80
2021/08/25 02:42:10;;;;;;;0.35;0.35;;;;;;;11.99;75.15;99953.41;4938317;29;20150;-77
2021/08/25 02:44:36;;;;;;;0.20;0.20;;;;;;;11.97;75.47;99958.13;4933149;29;20048;-78
2021/08/25 02:47:03;;;;;;;0.20;0.20;;;;;;;11.97;75.43;99964.41;4930373;29;20088;-78
2021/08/25 02:49:29;;;;;;;0.20;0.20;;;;;;;11.99;75.48;99964.22;4915074;29;20063;-80
2021/08/25 02:51:55;;;;;;;0.20;0.20;;;;;;;11.98;74.62;99959.81;4916522;29;20427;-81
2021/08/25 02:54:20;;;;;;;0.20;0.20;;;;;;;11.99;75.04;99959.69;4916515;29;20507;-80
2021/08/25 02:56:46;;;;;;;0.20;0.20;;;;;;;11.97;74.23;99963.56;4925974;29;20077;-78
2021/08/25 02:59:14;;;;;;;0.20;0.20;;;;;;;11.93;74.90;99967.56;4924344;29;20048;-80
2021/08/25 03:01:40;;;;;;;0.20;0.20;;;;;;;11.85;75.10;99967.47;4906560;29;20036;-81
2021/08/25 03:04:06;;;;;;;0.30;0.30;;;;;;;11.87;74.63;99973.59;4915857;29;20076;-81
2021/08/25 03:06:32;;;;;;;0.20;0.20;;;;;;;11.86;73.90;99966.47;4928666;29;20131;-80
2021/08/25 03:08:58;;;;;;;0.20;0.20;;;;;;;11.82;73.91;99963.19;4923393;29;20075;-81
2021/08/25 03:11:23;;;;;;;0.20;0.20;;;;;;;11.78;73.70;99970.75;4915888;29;20127;-80
2021/08/25 03:13:49;;;;;;;0.20;0.20;;;;;;;11.78;73.48;99965.34;4909122;29;20194;-78
2021/08/25 03:16:15;;;;;;;0.20;0.20;;;;;;;11.74;73.56;99953.09;4912154;29;20044;-85
2021/08/25 03:18:41;;;;;;;0.20;0.20;;;;;;;11.77;74.13;99968.19;4913391;29;20054;-80
2021/08/25 03:21:06;;;;;;;0.20;0.20;;;;;;;11.71;74.51;99980.50;4913865;29;20048;-82
2021/08/25 03:23:33;;;;;;;0.30;0.30;;;;;;;11.70;74.96;99972.50;4922641;29;20058;-82
2021/08/25 03:25:58;;;;;;;0.20;0.20;;;;;;;11.67;75.11;99973.66;4894609;29;20070;-80
2021/08/25 03:28:24;;;;;;;0.20;0.20;;;;;;;11.62;73.52;99970.53;4916729;29;20048;-80
2021/08/25 03:30:56;;;;;;;0.30;0.30;;;;;;;11.64;74.13;99979.38;4906643;29;20052;-81
2021/08/25 03:33:22;;;;;;;0.20;0.20;;;;;;;11.63;74.84;99976.81;4899888;29;20036;-83
2021/08/25 03:35:48;;;;;;;0.20;0.20;;;;;;;11.62;75.22;99967.84;4899071;29;20071;-80
2021/08/25 03:38:14;;;;;;;0.22;0.22;;;;;;;11.66;74.63;99973.81;4918140;29;20051;-81
2021/08/25 03:40:40;;;;;;;0.30;0.30;;;;;;;11.77;74.61;99979.03;4912712;29;20044;-82
2021/08/25 03:43:06;;;;;;;0.30;0.30;;;;;;;11.96;74.29;99972.69;4914938;29;20693;-81
2021/08/25 03:45:31;;;;;;;0.30;0.30;;;;;;;12.29;73.31;99963.91;4895790;29;20071;-81
2021/08/25 03:47:57;;;;;;;0.30;0.30;;;;;;;12.64;71.81;99964.88;4922078;29;20052;-80
2021/08/25 03:50:23;;;;;;;0.30;0.30;;;;;;;12.93;70.32;99963.72;4907509;29;20477;-81
2021/08/25 03:52:49;;;;;;;0.30;0.30;;;;;;;13.17;68.67;99953.06;4898648;29;20054;-81
2021/08/25 03:55:16;;;;;;;0.30;0.30;;;;;;;13.45;68.14;99963.75;4912169;29;20036;-79
2021/08/25 03:57:42;;;;;;;0.30;0.30;;;;;;;13.50;67.45;99951.38;4914171;29;20043;-83
2021/08/25 04:00:08;;;;;;;0.30;0.30;;;;;;;13.73;65.76;99962.50;4904651;29;20148;-80
2021/08/25 04:02:40;;;;;;;0.30;0.30;;;;;;;13.90;65.09;99960.72;4916940;29;20044;-79
2021/08/25 04:05:06;;;;;;;0.30;0.30;;;;;;;14.17;64.05;99962.31;4912940;29;20549;-80
2021/08/25 04:07:32;;;;;;;0.30;0.30;;;;;;;14.37;63.60;99962.88;4917488;29;20040;-83
2021/08/25 04:09:58;;;;;;;0.20;0.20;;;;;;;14.34;62.97;99956.91;4890033;29;20036;-82
2021/08/25 04:12:24;;;;;;;0.20;0.20;;;;;;;14.04;62.19;99953.78;4935604;29;20035;-81
2021/08/25 04:14:50;;;;;;;0.20;0.20;;;;;;;13.90;62.72;99960.72;4920746;29;20040;-81
2021/08/25 04:17:16;;;;;;;0.20;0.20;;;;;;;13.76;63.18;99953.19;4920143;29;20159;-81
2021/08/25 04:19:42;;;;;;;0.20;0.20;;;;;;;13.61;63.09;99950.25;4935321;29;20058;-80
2021/08/25 04:22:07;;;;;;;0.20;0.20;;;;;;;13.60;62.95;99956.72;4929048;29;20037;-80
2021/08/25 04:24:33;;;;;;;0.25;0.25;;;;;;;13.46;62.77;99946.44;4931964;29;20120;-80
2021/08/25 04:26:59;;;;;;;0.22;0.22;;;;;;;13.39;62.29;99942.69;4917242;29;20055;-80
2021/08/25 04:29:25;;;;;;;0.30;0.30;;;;;;;13.46;61.38;99957.31;4927491;29;20044;-79
2021/08/25 04:31:51;;;;;;;0.20;0.20;;;;;;;13.45;59.34;99952.88;4933926;29;20108;-80
2021/08/25 04:34:17;;;;;;;0.20;0.20;;;;;;;13.49;59.53;99946.09;4931314;29;20087;-79
2021/08/25 04:36:42;;;;;;;0.20;0.20;;;;;;;13.63;59.90;99952.78;4943030;29;20044;-80
2021/08/25 04:39:08;;;;;;;0.28;0.28;;;;;;;13.64;58.78;99952.66;4917185;29;20044;-80
2021/08/25 04:41:34;;;;;;;0.20;0.20;;;;;;;13.64;57.96;99947.22;4922245;29;20051;-82
2021/08/25 04:44:00;;;;;;;0.30;0.30;;;;;;;13.72;57.34;99946.38;4918766;29;20048;-80
2021/08/25 04:46:26;;;;;;;0.20;0.20;;;;;;;13.82;56.66;99951.66;4912800;29;20087;-82
2021/08/25 04:48:53;;;;;;;0.20;0.20;;;;;;;13.86;56.69;99944.91;4933388;29;20062;-82
2021/08/25 04:51:19;;;;;;;0.70;0.40;;;;;;;13.89;56.05;99941.84;4909776;29;20054;-83
2021/08/25 04:53:45;;;;;;;0.30;0.30;;;;;;;13.95;55.66;99941.19;4912958;29;20052;-81
2021/08/25 04:56:11;;;;;;;0.20;0.20;;;;;;;13.98;55.52;99944.44;4917948;29;20059;-83
2021/08/25 04:58:38;;;;;;;0.30;0.30;;;;;;;14.02;54.69;99933.22;4912917;29;20044;-84
2021/08/25 05:01:05;;;;;;;0.30;0.30;;;;;;;14.06;54.65;99937.31;4930987;29;20507;-82
2021/08/25 05:03:31;;;;;;;0.20;0.20;;;;;;;14.11;53.97;99943.09;4916459;29;20044;-83
2021/08/25 05:05:58;;;;;;;0.20;0.20;;;;;;;14.15;53.19;99942.59;4907305;29;20076;-83
2021/08/25 05:08:27;;;;;;;0.20;0.20;;;;;;;14.18;52.31;99936.81;4916192;29;20075;-81
2021/08/25 05:10:53;;;;;;;0.20;0.20;;;;;;;14.21;52.27;99936.47;4930021;29;20048;-83
2021/08/25 05:13:19;;;;;;;0.20;0.20;;;;;;;14.23;52.36;99939.03;4934029;29;20116;-83
2021/08/25 05:15:45;;;;;;;0.30;0.30;;;;;;;14.31;52.89;99944.50;4945103;29;20080;-83
2021/08/25 05:18:12;;;;;;;0.82;0.30;;;;;;;14.41;51.12;99941.63;4911606;29;20059;-82
2021/08/25 05:20:38;;;;;;;0.20;0.20;;;;;;;14.39;51.33;99940.91;4928595;29;20091;-84
2021/08/25 05:23:05;;;;;;;0.35;0.30;;;;;;;14.47;51.78;99940.91;4886220;29;20506;-82
2021/08/25 05:25:31;;;;;;;0.20;0.20;;;;;;;14.54;51.06;99928.38;4895433;29;20059;-83
2021/08/25 05:27:57;;;;;;;0.30;0.30;;;;;;;14.68;51.30;99924.97;4909625;29;20063;-82
2021/08/25 05:30:23;;;;;;;0.80;0.80;;;;;;;15.51;49.31;99926.50;4911102;29;20052;-82
2021/08/25 05:32:52;;;;;;;0.80;0.80;;;;;;;16.60;47.54;99933.72;4926981;29;20390;-83
2021/08/25 05:35:19;;;;;;;0.80;0.80;;;;;;;17.52;44.51;99930.75;4903810;29;20471;-82
2021/08/25 05:37:46;;;;;;;0.70;0.70;;;;;;;18.23;41.53;99939.22;4919308;29;20041;-83
2021/08/25 05:40:13;;;;;;;0.70;0.70;;;;;;;18.87;41.21;99937.56;4919645;29;20044;-82
2021/08/25 05:42:41;;;;;;;0.70;0.70;;;;;;;19.42;39.95;99936.69;4924529;29;20050;-82
2021/08/25 05:45:08;;;;;;;0.70;0.70;;;;;;;20.08;38.84;99932.59;4925202;29;20058;-83
2021/08/25 05:47:36;;;;;;;0.80;0.80;;;;;;;20.68;37.46;99934.41;4917667;29;20490;-83
2021/08/25 05:50:03;;;;;;;0.70;0.70;;;;;;;20.95;35.76;99929.78;4920945;29;20055;-81
2021/08/25 05:52:29;;;;;;;0.80;0.80;;;;;;;21.26;35.01;99925.50;4931475;29;20075;-81
2021/08/25 05:54:58;;;;;;;0.70;0.70;;;;;;;21.72;33.84;99924.59;4913775;29;20084;-81
2021/08/25 05:57:24;;;;;;;0.70;0.70;;;;;;;21.81;34.45;99916.94;4899500;29;20123;-81
2021/08/25 05:59:51;;;;;;;0.70;0.70;;;;;;;22.06;33.85;99917.03;4929631;29;20080;-83
2021/08/25 06:02:17;;;;;;;0.60;0.60;;;;;;;22.54;33.08;99916.56;4897199;29;20044;-83
2021/08/25 06:04:43;;;;;;;0.80;0.80;;;;;;;22.67;32.79;99910.94;4939859;29;20051;-84
2021/08/25 06:07:10;;;;;;;0.60;0.60;;;;;;;22.69;32.60;99916.22;4921151;29;20554;-82
2021/08/25 06:09:37;;;;;;;0.80;0.80;;;;;;;22.88;32.80;99918.81;4932450;29;20047;-81
2021/08/25 06:12:04;;;;;;;0.80;0.80;;;;;;;23.31;31.68;99923.53;4908289;29;20048;-83
2021/08/25 06:14:30;;;;;;;0.80;0.80;;;;;;;23.54;31.55;99928.38;4915298;29;20044;-83
2021/08/25 06:16:57;;;;;;;0.77;0.77;;;;;;;23.83;30.21;99925.97;4923684;29;20191;-84
2021/08/25 06:19:23;;;;;;;0.70;0.70;;;;;;;23.95;30.92;99913.09;4914101;29;20421;-82
2021/08/25 06:21:50;;;;;;;0.70;0.70;;;;;;;24.10;30.80;99909.91;4906832;29;20077;-83
2021/08/25 06:24:16;;;;;;;0.80;0.80;;;;;;;24.53;30.57;99903.34;4893462;29;20580;-81
2021/08/25 06:26:43;;;;;;;0.70;0.70;;;;;;;24.80;30.06;99895.47;4907865;29;20048;-83
2021/08/25 06:29:10;;;;;;;0.80;0.80;;;;;;;25.26;29.30;99891.91;4919131;29;20051;-84
2021/08/25 06:31:36;;;;;;;0.90;0.90;;;;;;;25.36;30.25;99890.47;4904329;29;20051;-81
2021/08/25 06:34:02;;;;;;;0.75;0.75;;;;;;;25.71;28.83;99894.00;4932531;29;20522;-82
2021/08/25 06:36:28;;;;;;;0.80;0.80;;;;;;;25.65;28.64;99892.22;4929479;29;20043;-84
2021/08/25 06:38:54;;;;;;;0.80;0.80;;;;;;;26.13;28.53;99896.53;4922384;29;20072;-83
2021/08/25 06:41:21;;;;;;;0.90;0.90;;;;;;;26.20;28.45;99891.69;4924683;29;20044;-82
2021/08/25 06:43:47;;;;;;;0.80;0.80;;;;;;;26.66;28.04;99900.91;4925222;29;20075;-84
2021/08/25 06:46:13;;;;;;;1.00;1.00;;;;;;;27.20;27.12;99899.56;4925291;29;20428;-85
2021/08/25 06:48:41;;;;;;;0.90;0.90;;;;;;;27.47;26.59;99900.53;4892573;29;20120;-84
2021/08/25 06:51:07;;;;;;;0.40;0.40;;;;;;;26.39;27.49;99888.72;4890518;29;20036;-85
2021/08/25 06:53:35;;;;;;;1.00;1.00;;;;;;;25.00;29.72;99889.59;4914864;29;20088;-84
2021/08/25 06:56:02;;;;;;;0.90;0.90;;;;;;;25.63;28.58;99879.69;4914989;29;20078;-82
2021/08/25 06:58:29;;;;;;;0.80;0.80;;;;;;;26.07;28.12;99886.47;4914203;29;20082;-83
2021/08/25 07:00:56;;;;;;;1.00;1.00;;;;;;;26.75;26.73;99886.59;4925924;29;20037;-82
2021/08/25 07:03:28;;;;;;;1.00;1.00;;;;;;;27.52;26.00;99892.25;4932418;29;20044;-86
2021/08/25 07:05:59;;;;;;;0.98;0.98;;;;;;;27.83;25.56;99893.53;4916827;29;20577;-86
2021/08/25 07:08:25;;;;;;;1.02;1.02;;;;;;;28.04;25.32;99902.94;4922287;29;20048;-84
2021/08/25 07:10:54;;;;;;;1.00;1.00;;;;;;;28.54;24.64;99910.19;4922244;29;20040;-82
2021/08/25 07:13:23;;;;;;;1.00;1.00;;;;;;;28.87;24.14;99902.69;4899880;29;20530;-84
2021/08/25 07:15:49;;;;;;;0.95;0.95;;;;;;;29.12;24.06;99904.03;4914564;29;20089;-82
2021/08/25 07:18:15;;;;;;;1.05;1.05;;;;;;;29.46;23.32;99899.78;4915555;29;20051;-82
2021/08/25 07:20:42;;;;;;;0.32;0.30;;;;;;;28.42;24.54;99895.59;4913925;29;20055;-85
2021/08/25 07:23:09;;;;;;;0.40;0.40;;;;;;;27.56;26.35;99887.84;4884640;29;20071;-83
2021/08/25 07:25:36;;;;;;;0.90;0.90;;;;;;;28.16;24.92;99891.69;4897929;29;20439;-85
2021/08/25 07:28:03;;;;;;;1.00;1.00;;;;;;;28.92;23.95;99876.84;4893838;29;20526;-84
2021/08/25 07:30:30;;;;;;;0.90;0.90;;;;;;;29.52;23.28;99882.00;4911240;29;20044;-83
2021/08/25 07:32:56;;;;;;;0.90;0.90;;;;;;;29.52;23.67;99887.56;4910631;29;20064;-85
2021/08/25 07:35:24;;;;;;;1.00;1.00;;;;;;;29.82;23.14;99896.38;4888040;29;20028;-82
2021/08/25 07:37:53;;;;;;;0.90;0.90;;;;;;;30.26;22.76;99892.09;4888432;29;20056;-85
2021/08/25 07:40:19;;;;;;;0.90;0.90;;;;;;;30.47;22.75;99903.31;4920940;29;20036;-83
2021/08/25 07:42:46;;;;;;;0.90;0.90;;;;;;;31.01;21.76;99904.72;4910439;29;20040;-82
2021/08/25 07:45:12;;;;;;;1.00;1.00;;;;;;;31.07;20.89;99889.66;4902346;29;20039;-83
2021/08/25 07:47:39;;;;;;;1.00;1.00;;;;;;;30.33;22.09;99889.03;4918057;29;20050;-83
2021/08/25 07:50:06;;;;;;;1.00;1.00;;;;;;;31.16;22.16;99891.63;4908045;29;20051;-83
2021/08/25 07:52:35;;;;;;;1.00;1.00;;;;;;;29.92;22.42;99891.69;4917503;29;20052;-85
2021/08/25 07:55:01;;;;;;;1.00;1.00;;;;;;;29.79;21.85;99886.59;4918372;29;20032;-84
2021/08/25 07:57:29;;;;;;;0.95;0.95;;;;;;;29.83;21.68;99898.88;4917206;29;20041;-82
2021/08/25 07:59:57;;;;;;;1.00;1.00;;;;;;;30.24;21.51;99894.34;4886892;29;20045;-84
2021/08/25 08:02:25;;;;;;;1.20;1.20;;;;;;;30.73;20.86;99895.78;4896574;29;20091;-87
2021/08/25 08:04:51;;;;;;;0.80;0.80;;;;;;;31.17;20.10;99884.06;4928463;29;20127;-84
2021/08/25 08:07:18;;;;;;;0.80;0.80;;;;;;;31.63;20.41;99881.16;4923879;29;20076;-83
2021/08/25 08:09:44;;;;;;;1.00;1.00;;;;;;;32.08;19.95;99887.72;4891559;29;20055;-84
2021/08/25 08:12:11;;;;;;;1.10;1.10;;;;;;;31.74;20.33;99884.75;4921001;29;20166;-83
2021/08/25 08:14:37;;;;;;;1.10;1.10;;;;;;;32.16;19.26;99884.31;4923535;29;20040;-83
2021/08/25 08:17:05;;;;;;;1.00;1.00;;;;;;;32.54;18.94;99884.66;4915741;29;20130;-83
2021/08/25 08:19:33;;;;;;;0.90;0.90;;;;;;;32.81;18.74;99878.59;4903303;29;20063;-84
2021/08/25 08:22:03;;;;;;;1.00;1.00;;;;;;;32.49;19.25;99874.34;4936142;29;20040;-83
2021/08/25 08:24:30;;;;;;;1.00;1.00;;;;;;;31.04;20.98;99873.47;4890182;29;20088;-82
2021/08/25 08:26:56;;;;;;;0.55;0.55;;;;;;;31.27;21.08;99867.28;4924041;29;20348;-82
2021/08/25 08:29:22;;;;;;;1.15;1.15;;;;;;;31.92;19.82;99868.25;4923497;29;20134;-84
2021/08/25 08:31:48;;;;;;;0.77;0.77;;;;;;;32.26;19.47;99861.06;4928783;29;20056;-83
2021/08/25 08:34:15;;;;;;;1.00;1.00;;;;;;;30.38;21.77;99869.50;4921291;29;20199;-83
2021/08/25 08:36:42;;;;;;;0.90;0.90;;;;;;;30.42;21.54;99856.72;4919872;29;20047;-84
2021/08/25 08:39:08;;;;;;;0.90;0.90;;;;;;;30.24;21.56;99865.56;4904513;29;20059;-85
2021/08/25 08:41:34;;;;;;;1.20;1.20;;;;;;;30.63;21.55;99862.28;4917518;29;20048;-82
2021/08/25 08:44:00;;;;;;;1.20;1.20;;;;;;;31.75;21.04;99856.53;4921537;29;20040;-83
2021/08/25 08:46:26;;;;;;;1.10;1.10;;;;;;;30.16;21.76;99852.97;4890644;29;20490;-85
2021/08/25 08:48:53;;;;;;;0.80;0.80;;;;;;;30.81;21.61;99856.16;4920978;29;20048;-84
2021/08/25 08:51:21;;;;;;;0.40;0.40;;;;;;;30.04;22.18;99850.44;4916048;29;20084;-84
2021/08/25 08:53:49;;;;;;;1.08;1.08;;;;;;;30.97;21.08;99852.25;4919084;29;20124;-85
2021/08/25 08:56:15;;;;;;;1.20;1.20;;;;;;;31.43;20.70;99843.78;4918277;29;20041;-82
2021/08/25 08:58:41;;;;;;;1.10;1.10;;;;;;;32.41;19.44;99852.56;4917592;29;20462;-85
2021/08/25 09:01:08;;;;;;;0.40;0.40;;;;;;;31.41;20.70;99846.06;4921074;29;20111;-86
2021/08/25 09:03:36;;;;;;;0.60;0.60;;;;;;;31.05;21.45;99847.22;4912239;29;20040;-85
2021/08/25 09:06:03;;;;;;;1.20;1.20;;;;;;;31.40;21.11;99838.75;4911820;29;20055;-84
2021/08/25 09:08:31;;;;;;;1.10;1.10;;;;;;;32.08;19.79;99846.59;4918695;29;20511;-85
2021/08/25 09:11:15;;;;;;;1.00;1.00;;;;;;;33.13;19.06;99844.41;4903759;29;20055;-82
2021/08/25 09:13:48;;;;;;;1.00;1.00;;;;;;;32.87;19.52;99849.38;4920977;29;20048;-84
2021/08/25 09:16:29;;;;;;;0.55;0.55;;;;;;;32.38;18.88;99853.94;4923584;29;20506;-85
2021/08/25 09:19:01;;;;;;;1.00;1.00;;;;;;;30.40;21.12;99842.19;4909313;29;20088;-81
2021/08/25 09:21:51;;;;;;;1.20;1.20;;;;;;;30.81;20.59;99835.78;4927716;29;20039;-82
2021/08/25 09:24:22;;;;;;;0.90;0.90;;;;;;;30.04;21.66;99828.13;4899977;29;20073;-82
2021/08/25 09:27:12;;;;;;;0.90;0.90;;;;;;;29.78;21.65;99843.13;4903914;29;20072;-83
2021/08/25 09:29:40;;;;;;;0.80;0.80;;;;;;;30.57;20.75;99832.69;4908130;29;20051;-84
2021/08/25 09:32:21;;;;;;;0.85;0.85;;;;;;;29.72;22.17;99824.69;4920035;29;20040;-84
2021/08/25 09:35:04;;;;;;;0.50;0.50;;;;;;;30.37;21.63;99809.25;4913367;29;20036;-83
2021/08/25 09:37:33;;;;;;;0.60;0.60;;;;;;;30.46;21.57;99813.19;4884447;29;20051;-84
2021/08/25 09:40:02;;;;;;;0.80;0.80;;;;;;;30.88;21.17;99809.25;4893914;29;20048;-82
2021/08/25 09:42:41;;;;;;;0.50;0.50;;;;;;;30.95;21.93;99820.97;4918055;29;20266;-85
2021/08/25 09:45:11;;;;;;;0.50;0.50;;;;;;;30.49;22.19;99818.19;4898800;29;20111;-85
2021/08/25 09:47:46;;;;;;;0.20;0.20;;;;;;;29.24;23.62;99818.34;4902289;29;20495;-83
2021/08/25 09:50:15;;;;;;;0.30;0.30;;;;;;;28.89;24.25;99821.69;4927208;29;20044;-86
2021/08/25 09:52:44;;;;;;;0.70;0.70;;;;;;;29.21;24.04;99818.88;4901711;29;20507;-82
2021/08/25 09:55:12;;;;;;;0.40;0.40;;;;;;;28.96;24.67;99809.25;4890905;29;20047;-81
2021/08/25 09:57:44;;;;;;;0.20;0.20;;;;;;;28.23;25.06;99830.28;4928370;29;20092;-83
2021/08/25 10:00:21;;;;;;;0.22;0.22;;;;;;;28.32;25.93;99823.16;4902345;29;20105;-85
2021/08/25 10:02:48;;;;;;;0.40;0.40;;;;;;;27.83;26.13;99820.44;4916569;29;20044;-84
2021/08/25 10:05:28;;;;;;;0.20;0.20;;;;;;;27.46;26.94;99818.31;4922484;29;20040;-86
2021/08/25 10:08:05;;;;;;;0.70;0.70;;;;;;;27.79;26.64;99819.25;4892129;29;20059;-84
2021/08/25 10:10:31;;;;;;;0.73;0.73;;;;;;;28.03;26.17;99814.25;4910419;29;20036;-86
2021/08/25 10:12:58;;;;;;;0.40;0.40;;;;;;;28.64;25.24;99806.50;4909872;29;20040;-85
2021/08/25 10:15:31;;;;;;;0.30;0.30;;;;;;;28.78;25.30;99804.94;4930100;29;20052;-87
2021/08/25 10:17:59;;;;;;;0.20;0.20;;;;;;;28.09;26.48;99808.50;4921870;29;20096;-85
2021/08/25 10:20:35;;;;;;;0.40;0.40;;;;;;;27.95;26.64;99801.69;4902577;29;20087;-85
2021/08/25 10:23:03;;;;;;;0.30;0.30;;;;;;;25.26;30.50;99780.34;4904428;29;20039;-83
2021/08/25 10:25:31;;;;;;;0.20;0.20;;;;;;;24.60;31.38;99792.66;4904498;29;20166;-85
2021/08/25 10:28:09;;;;;;;0.38;0.38;;;;;;;24.93;31.47;99800.34;4919797;29;20032;-85
2021/08/25 10:33:21;;;;;;;0.40;0.40;;;;;;;24.93;31.39;99792.06;4857346;29;20041;-85
2021/08/25 10:35:48;;;;;;;0.90;0.90;;;;;;;26.42;29.22;99797.56;4877628;29;20040;-87
2021/08/25 10:38:19;;;;;;;0.40;0.40;;;;;;;26.28;29.38;99803.69;4853155;29;20077;-85
2021/08/25 10:40:46;;;;;;;0.20;0.20;;;;;;;25.68;30.08;99800.34;4865587;29;20041;-84
2021/08/25 10:43:33;;;;;;;0.30;0.30;;;;;;;25.89;30.12;99800.78;5115461;23;20067;-86
2021/08/25 10:46:13;;;;;;;0.40;0.40;;;;;;;25.14;31.18;99782.31;4889869;29;20032;-84
2021/08/25 10:48:58;;;;;;;0.50;0.50;;;;;;;25.00;31.50;99781.72;4919349;29;20050;-85
2021/08/25 10:51:26;;;;;;;0.20;0.20;;;;;;;24.68;32.62;99793.16;4927276;29;20043;-83
2021/08/25 10:53:52;;;;;;;0.30;0.30;;;;;;;25.51;31.46;99799.44;4926933;29;20068;-83
2021/08/25 10:59:23;;;;;;;0.38;0.30;;;;;;;24.53;32.95;99787.25;4865209;29;20334;-84
2021/08/25 11:01:55;;;;;;;0.30;0.30;;;;;;;25.52;31.12;99784.50;4854172;29;20097;-84
2021/08/25 11:04:22;;;;;;;0.22;0.22;;;;;;;25.62;31.07;99787.47;4853519;29;20041;-82
2021/08/25 11:06:55;;;;;;;0.30;0.30;;;;;;;24.50;32.59;99793.28;4877624;29;20124;-83
2021/08/25 11:09:30;;;;;;;0.40;0.40;;;;;;;24.96;32.38;99797.09;4870164;29;20136;-83
2021/08/25 11:11:56;;;;;;;;;;;;;;;24.62;32.52;99791.34;4857947;29;20609;-85
2021/08/25 11:14:34;;;;;;;0.40;0.40;;;;;;;25.82;30.76;99794.56;4858707;29;19926;-86
2021/08/25 11:17:06;;;;;;;0.30;0.30;;;;;;;25.42;32.03;99803.69;4863450;29;20041;-84
2021/08/25 11:19:43;;;;;;;0.77;0.77;;;;;;;26.04;30.45;99791.91;4853199;29;20054;-85
2021/08/25 11:22:23;;;;;;;0.40;0.40;;;;;;;25.43;31.21;99791.53;4847162;29;20086;-87
2021/08/25 11:24:52;;;;;;;0.52;0.52;;;;;;;26.14;30.58;99787.41;4877809;29;20053;-86
2021/08/25 11:27:36;;;;;;;0.30;0.30;;;;;;;26.07;30.82;99786.72;4868270;29;20048;-84
2021/08/25 11:30:09;;;;;;;0.47;0.47;;;;;;;26.55;30.29;99781.72;4873855;29;20033;-87
2021/08/25 11:32:43;;;;;;;0.30;0.30;;;;;;;27.10;29.50;99781.72;4869010;29;20046;-83
2021/08/25 11:35:11;;;;;;;0.93;0.93;;;;;;;27.93;28.26;99791.91;4862064;29;20044;-85
2021/08/25 11:37:42;;;;;;;0.80;0.80;;;;;;;28.48;27.33;99772.16;4865917;29;20522;-86
2021/08/25 11:40:12;;;;;;;0.30;0.30;;;;;;;28.28;27.63;99777.53;4867835;29;20081;-84
2021/08/25 11:45:34;;;;;;;0.20;0.20;;;;;;;26.69;29.85;99771.94;4928042;29;20032;-86
2021/08/25 11:48:03;;;;;;;0.68;0.68;;;;;;;26.03;31.50;99766.09;4955735;23;20044;-85